Borden, South Carolina
Current Conditions -  °F | °C
As of 10:58 PM on Wednesday 26 Nov 2014 (Local Time) from KSSC Reporting Station
Clear Clear  
Wind Chill: 41°   Ceiling: Unl
Heat Index: 41°   Visibility: 10mi
Dew Point: 39°   Wind: 2mph
Humidity: 94%   Direction: 170°S
Pressure: 30.07"   Gusts: NA
Location:  34.1106°N, 80.4967°W
Report Text: KSSC 270358Z AUTO 17002KT 10SM CLR 05/04 A3007 RMK AO2 VIS 1 RWY22 SLP185 T00490040 $
Loading
Personal Weather Stations






























Interactive Weather Map New forecast layout! Learn more

10-Day Weather Forecast

Advertisements
Track Severe Weather on mobile